createdAt,value
2022-12-09T00:01:22.573Z,88.83
2022-12-09T00:06:28.092Z,31.13
2022-12-09T00:11:30.640Z,31.80
2022-12-09T00:16:33.168Z,23.77
2022-12-09T00:21:35.973Z,64.00
2022-12-09T00:26:39.449Z,37.03
2022-12-09T00:31:41.932Z,35.50
2022-12-09T00:36:44.571Z,33.27
2022-12-09T00:41:47.058Z,37.17
2022-12-09T00:46:49.752Z,25.73
2022-12-09T00:51:54.117Z,29.13
2022-12-09T00:56:57.437Z,35.73
2022-12-09T01:01:59.849Z,34.27
2022-12-09T01:07:02.580Z,33.60
2022-12-09T01:12:05.244Z,33.83
2022-12-09T01:17:07.748Z,30.50
2022-12-09T01:22:10.074Z,30.70
2022-12-09T01:27:12.604Z,48.47
2022-12-09T01:32:15.285Z,36.63
2022-12-09T01:37:17.664Z,31.37
2022-12-09T01:42:23.637Z,27.00
2022-12-09T01:47:26.427Z,34.17
2022-12-09T01:52:28.769Z,47.37
2022-12-09T01:57:31.885Z,80.27
2022-12-09T02:02:36.960Z,40.97
2022-12-09T02:07:39.613Z,42.87
2022-12-09T02:13:05.141Z,46.30
2022-12-09T02:18:38.544Z,39.70
2022-12-09T02:24:00.387Z,40.30
2022-12-09T02:29:28.292Z,37.07
2022-12-09T02:34:34.720Z,40.70
2022-12-09T02:39:51.703Z,42.73
2022-12-09T02:44:58.425Z,41.03
2022-12-09T02:50:09.218Z,37.77
2022-12-09T02:55:16.532Z,40.10
2022-12-09T03:00:19.565Z,39.13
2022-12-09T03:05:26.616Z,38.83
2022-12-09T03:10:42.823Z,35.23
2022-12-09T03:15:49.956Z,33.83
2022-12-09T03:20:54.355Z,30.20
2022-12-09T03:25:58.504Z,29.70
2022-12-09T03:31:05.600Z,30.77
2022-12-09T03:36:11.366Z,29.77
2022-12-09T03:41:30.567Z,33.07
2022-12-09T03:46:33.058Z,28.93
2022-12-09T03:51:41.205Z,30.00
2022-12-09T03:56:47.450Z,35.10
2022-12-09T04:01:50.432Z,35.07
2022-12-09T04:06:54.455Z,33.60
2022-12-09T04:11:56.831Z,36.20
2022-12-09T04:16:59.465Z,38.33
2022-12-09T04:22:01.931Z,33.47
2022-12-09T04:27:04.287Z,29.87
2022-12-09T04:32:07.100Z,37.73
2022-12-09T04:37:09.510Z,30.97
2022-12-09T04:42:13.683Z,33.03
2022-12-09T04:47:16.135Z,31.03
2022-12-09T04:52:19.849Z,31.30
2022-12-09T04:57:23.572Z,31.90
2022-12-09T05:02:26.045Z,31.20
2022-12-09T05:07:29.805Z,31.73
2022-12-09T05:12:33.410Z,41.27
2022-12-09T05:17:35.837Z,43.03
2022-12-09T05:22:38.539Z,59.43
2022-12-09T05:27:41.148Z,54.60
2022-12-09T05:32:44.136Z,45.27
2022-12-09T05:37:46.951Z,33.90
2022-12-09T05:42:49.611Z,54.83
2022-12-09T05:47:52.096Z,76.13
2022-12-09T05:52:54.547Z,65.60
2022-12-09T05:57:56.974Z,57.83
2022-12-09T06:02:59.352Z,55.23
2022-12-09T06:08:06.557Z,51.70
2022-12-09T06:13:09.936Z,54.27
2022-12-09T06:18:12.286Z,55.83
2022-12-09T06:23:14.921Z,44.00
2022-12-09T06:28:19.677Z,62.20
2022-12-09T06:33:52.357Z,54.93
2022-12-09T06:38:45.052Z,58.33
2022-12-09T06:43:47.685Z,51.83
2022-12-09T06:48:50.411Z,50.17
2022-12-09T06:53:53.577Z,51.70
2022-12-09T06:58:56.755Z,42.30
2022-12-09T07:03:59.371Z,54.83
2022-12-09T07:09:06.534Z,125.60
2022-12-09T07:14:10.022Z,74.30
2022-12-09T07:19:21.673Z,57.70
2022-12-09T07:24:25.415Z,58.37
2022-12-09T07:29:27.793Z,52.00
2022-12-09T07:34:30.782Z,50.90
2022-12-09T07:39:33.603Z,44.70
2022-12-09T07:44:36.438Z,45.47
2022-12-09T07:49:39.067Z,43.90
2022-12-09T07:54:41.935Z,41.20
2022-12-09T07:59:44.614Z,45.30
2022-12-09T08:04:47.120Z,43.70
2022-12-09T08:09:49.965Z,42.60
2022-12-09T08:14:52.984Z,44.73
2022-12-09T08:19:56.480Z,43.23
2022-12-09T08:24:59.056Z,39.23
2022-12-09T08:30:02.457Z,39.43
2022-12-09T08:35:05.782Z,44.40
2022-12-09T08:40:09.850Z,49.13
2022-12-09T08:45:12.684Z,45.90
2022-12-09T08:50:16.286Z,50.67
2022-12-09T08:55:18.982Z,56.10
2022-12-09T09:00:21.658Z,49.47
2022-12-09T09:05:24.128Z,59.50
2022-12-09T09:10:27.769Z,56.67
2022-12-09T09:15:30.441Z,63.57
2022-12-09T09:20:32.849Z,57.87
2022-12-09T09:25:35.272Z,39.93
2022-12-09T09:30:38.510Z,40.67
2022-12-09T09:35:41.612Z,52.20
2022-12-09T09:40:44.444Z,40.53
2022-12-09T09:45:47.199Z,37.37
2022-12-09T09:51:15.917Z,47.57
2022-12-09T09:56:43.917Z,37.23
2022-12-09T10:02:03.454Z,41.20
2022-12-09T10:07:42.737Z,40.67
2022-12-09T10:13:20.945Z,47.10
2022-12-09T10:18:35.495Z,44.70
2022-12-09T10:23:38.709Z,46.27
2022-12-09T10:28:46.391Z,41.63
2022-12-09T10:33:49.707Z,45.93
2022-12-09T10:38:52.532Z,40.73
2022-12-09T10:44:21.040Z,40.63
2022-12-09T10:49:23.859Z,41.43
2022-12-09T10:54:37.347Z,36.50
2022-12-09T10:59:42.625Z,36.23
2022-12-09T11:04:46.166Z,36.73
2022-12-09T11:10:07.057Z,39.33
2022-12-09T11:15:12.655Z,36.80
2022-12-09T11:20:41.994Z,32.30
2022-12-09T11:26:06.860Z,33.67
2022-12-09T11:31:29.559Z,48.73
2022-12-09T11:36:40.613Z,45.00
2022-12-09T11:42:16.959Z,38.43
2022-12-09T11:48:13.918Z,41.87
2022-12-09T11:53:13.556Z,53.50
2022-12-09T11:58:29.167Z,39.30
2022-12-09T12:03:47.840Z,39.10
2022-12-09T12:08:56.455Z,39.53
2022-12-09T12:14:17.331Z,43.27
2022-12-09T12:19:33.699Z,41.07
2022-12-09T12:24:57.017Z,64.30
2022-12-09T12:30:01.755Z,47.63
2022-12-09T12:35:53.398Z,41.13
2022-12-09T12:41:14.376Z,50.63
2022-12-09T12:46:36.277Z,37.50
2022-12-09T12:52:12.704Z,44.20
2022-12-09T12:57:37.007Z,53.50
2022-12-09T13:02:59.228Z,45.13
2022-12-09T13:08:27.736Z,53.57
2022-12-09T13:13:35.136Z,46.83
2022-12-09T13:18:39.844Z,36.83
2022-12-09T13:23:56.530Z,33.20
2022-12-09T13:29:30.074Z,34.87
2022-12-09T13:34:45.216Z,34.47
2022-12-09T13:39:50.196Z,38.93
2022-12-09T13:45:05.537Z,49.50
2022-12-09T13:50:44.509Z,48.30
2022-12-09T13:55:59.234Z,36.37
2022-12-09T14:01:21.218Z,31.43
2022-12-09T14:06:31.266Z,31.73
2022-12-09T14:11:38.514Z,28.90
2022-12-09T14:16:40.769Z,30.53
2022-12-09T14:21:43.023Z,33.87
2022-12-09T14:26:47.814Z,33.53
2022-12-09T14:31:55.979Z,36.13
2022-12-09T14:37:35.577Z,36.97
2022-12-09T14:42:56.067Z,35.13
2022-12-09T14:48:00.918Z,34.03
2022-12-09T14:53:07.098Z,37.37
2022-12-09T14:58:18.622Z,47.93
2022-12-09T15:03:45.362Z,47.47
2022-12-09T15:08:46.827Z,50.00
2022-12-09T15:13:51.600Z,44.27
2022-12-09T15:18:54.857Z,46.23
2022-12-09T15:23:59.444Z,42.67
2022-12-09T15:29:05.299Z,50.27
2022-12-09T15:34:17.631Z,50.77
2022-12-09T15:39:54.781Z,51.30
2022-12-09T15:45:06.501Z,53.07
2022-12-09T15:50:21.981Z,54.13
2022-12-09T15:55:38.227Z,57.45
2022-12-09T16:00:43.746Z,46.20
2022-12-09T16:05:52.943Z,42.27
2022-12-09T16:10:56.784Z,41.23
2022-12-09T16:16:01.501Z,41.37
2022-12-09T16:21:20.487Z,38.13
2022-12-09T16:26:34.206Z,35.70
2022-12-09T16:31:36.743Z,33.90
2022-12-09T16:36:56.002Z,33.60
2022-12-09T16:42:01.626Z,32.50
2022-12-09T16:47:11.757Z,37.00
2022-12-09T16:52:21.745Z,37.07
2022-12-09T16:57:24.067Z,35.93
2022-12-09T17:02:39.039Z,32.80
2022-12-09T17:07:41.564Z,29.07
2022-12-09T17:12:45.335Z,37.57
2022-12-09T17:17:48.924Z,30.00
2022-12-09T17:22:51.356Z,31.50
2022-12-09T17:27:53.826Z,39.53
2022-12-09T17:32:56.237Z,37.40
2022-12-09T17:37:59.518Z,43.03
2022-12-09T17:43:01.904Z,39.07
2022-12-09T17:48:04.671Z,42.53
2022-12-09T17:53:07.132Z,38.93
2022-12-09T17:58:09.394Z,39.50
2022-12-09T18:03:17.786Z,41.27
2022-12-09T18:08:24.813Z,38.57
2022-12-09T18:13:27.336Z,35.30
2022-12-09T18:18:29.620Z,36.80
2022-12-09T18:23:32.045Z,37.27
2022-12-09T18:28:34.376Z,32.50
2022-12-09T18:33:38.313Z,46.47
2022-12-09T18:38:41.227Z,41.87
2022-12-09T18:43:45.528Z,52.93
2022-12-09T18:48:47.849Z,57.63
2022-12-09T18:53:50.214Z,46.80
2022-12-09T18:59:09.187Z,53.33
2022-12-09T19:04:14.133Z,51.53
2022-12-09T19:09:21.515Z,49.30
2022-12-09T19:14:24.249Z,57.17
2022-12-09T19:19:27.194Z,45.70
2022-12-09T19:24:31.719Z,64.73
2022-12-09T19:29:33.973Z,48.80
2022-12-09T19:34:36.378Z,55.20
2022-12-09T19:39:42.103Z,53.80
2022-12-09T19:45:00.897Z,48.77
2022-12-09T19:50:04.451Z,51.00
2022-12-09T19:55:08.625Z,57.40
2022-12-09T20:00:11.668Z,54.40
2022-12-09T20:05:14.328Z,49.83
2022-12-09T20:10:16.912Z,48.27
2022-12-09T20:15:19.131Z,53.00
2022-12-09T20:20:21.340Z,50.27
2022-12-09T20:25:23.605Z,57.23
2022-12-09T20:30:26.505Z,57.90
2022-12-09T20:35:29.278Z,61.57
2022-12-09T20:40:32.234Z,63.60
2022-12-09T20:45:38.735Z,57.47
2022-12-09T20:50:41.026Z,66.33
2022-12-09T20:55:43.464Z,70.60
2022-12-09T21:00:45.698Z,78.67
2022-12-09T21:05:48.535Z,75.47
2022-12-09T21:10:50.829Z,75.97
2022-12-09T21:15:54.595Z,77.80
2022-12-09T21:20:56.943Z,72.07
2022-12-09T21:26:07.635Z,81.37
2022-12-09T21:31:20.452Z,78.40
2022-12-09T21:36:25.628Z,79.13
2022-12-09T21:41:31.222Z,83.17
2022-12-09T21:46:36.369Z,82.43
2022-12-09T21:51:38.904Z,77.87
2022-12-09T21:56:41.522Z,83.53
2022-12-09T22:01:44.253Z,78.77
2022-12-09T22:06:50.537Z,74.10
2022-12-09T22:11:53.031Z,85.67
2022-12-09T22:16:55.358Z,88.43
2022-12-09T22:21:57.607Z,84.03
2022-12-09T22:26:59.852Z,79.30
2022-12-09T22:32:02.137Z,84.50
2022-12-09T22:37:21.290Z,82.33
2022-12-09T22:42:29.316Z,81.83
2022-12-09T22:47:31.637Z,85.73
2022-12-09T22:52:33.881Z,81.27
2022-12-09T22:57:36.436Z,87.03
2022-12-09T23:02:39.479Z,87.40
2022-12-09T23:07:41.910Z,83.30
2022-12-09T23:12:44.180Z,88.73
2022-12-09T23:17:46.452Z,79.83
2022-12-09T23:22:48.696Z,86.80
2022-12-09T23:27:50.956Z,85.77
2022-12-09T23:32:53.190Z,85.07
2022-12-09T23:37:55.414Z,93.80
2022-12-09T23:42:57.640Z,96.33
2022-12-09T23:47:59.871Z,86.07
2022-12-09T23:53:02.261Z,84.70
2022-12-09T23:58:04.850Z,81.97
